Time;durP1;ratioP1;P1;durP2;ratioP2;P2;SDS_P1;SDS_P2;PMS_P1;PMS_P2;Temp;Humidity;BMP_temperature;BMP_pressure;BME280_temperature;BME280_humidity;BME280_pressure;Samples;Min_cycle;Max_cycle;Signal;HPM_P1;HPM_P2
2021/06/14 00:01:19;;;;;;;3.88;1.90;;;17.10;93.10;;;;;;5048685;28;20355;-61
2021/06/14 00:03:45;;;;;;;6.07;2.60;;;17.30;92.50;;;;;;5031814;28;20367;-61
2021/06/14 00:06:11;;;;;;;5.32;2.58;;;17.20;92.00;;;;;;5032969;28;20182;-61
2021/06/14 00:08:41;;;;;;;6.10;2.10;;;17.30;92.10;;;;;;5048202;28;20030;-61
2021/06/14 00:11:08;;;;;;;5.33;2.20;;;17.10;92.50;;;;;;5032915;28;20477;-61
2021/06/14 00:13:34;;;;;;;5.07;2.10;;;17.00;93.10;;;;;;5033106;28;20304;-61
2021/06/14 00:16:00;;;;;;;6.97;2.10;;;17.00;93.00;;;;;;5031279;28;20087;-61
2021/06/14 00:18:27;;;;;;;3.40;2.03;;;16.90;93.60;;;;;;5032863;28;20065;-61
2021/06/14 00:21:00;;;;;;;4.35;2.00;;;17.00;93.80;;;;;;5032568;28;20112;-61
2021/06/14 00:23:29;;;;;;;7.28;2.40;;;17.20;93.60;;;;;;5032767;28;20029;-61
2021/06/14 00:25:57;;;;;;;6.68;2.20;;;17.10;94.20;;;;;;5032562;28;20053;-61
2021/06/14 00:28:24;;;;;;;6.70;2.17;;;17.20;94.00;;;;;;5032671;28;20688;-61
2021/06/14 00:30:51;;;;;;;5.95;2.30;;;17.00;94.30;;;;;;5032507;28;20408;-61
2021/06/14 00:33:18;;;;;;;10.10;2.33;;;17.00;94.60;;;;;;5031246;28;20034;-61
2021/06/14 00:35:46;;;;;;;6.40;2.28;;;17.00;94.30;;;;;;5032685;28;20120;-61
2021/06/14 00:38:14;;;;;;;4.22;2.10;;;16.80;94.90;;;;;;5047796;28;20065;-61
2021/06/14 00:40:42;;;;;;;5.65;2.10;;;16.80;95.60;;;;;;5047881;28;20033;-61
2021/06/14 00:43:09;;;;;;;3.90;2.30;;;16.70;95.80;;;;;;5032291;28;20021;-61
2021/06/14 00:45:40;;;;;;;7.30;2.13;;;16.60;96.20;;;;;;5047651;28;20069;-61
2021/06/14 00:48:07;;;;;;;6.45;2.50;;;16.50;95.70;;;;;;5047416;28;20033;-61
2021/06/14 00:50:46;;;;;;;6.38;2.30;;;16.40;95.70;;;;;;5047728;28;20095;-61
2021/06/14 00:53:20;;;;;;;8.77;2.40;;;16.50;95.50;;;;;;5032233;28;20055;-61
2021/06/14 00:55:46;;;;;;;5.70;2.78;;;16.80;95.00;;;;;;5032528;28;20068;-61
2021/06/14 00:58:13;;;;;;;4.32;2.13;;;16.80;94.70;;;;;;5047763;28;20488;-61
2021/06/14 01:00:39;;;;;;;6.80;2.72;;;16.40;96.90;;;;;;5032481;28;20385;-61
2021/06/14 01:03:06;;;;;;;7.38;2.55;;;16.30;97.40;;;;;;5032332;28;20032;-61
2021/06/14 01:05:42;;;;;;;17.02;2.78;;;16.00;98.10;;;;;;5047775;28;20034;-61
2021/06/14 01:08:09;;;;;;;5.35;2.70;;;15.90;99.10;;;;;;5046709;28;20058;-61
2021/06/14 01:10:37;;;;;;;10.05;3.25;;;15.70;99.50;;;;;;5047714;28;20045;-61
2021/06/14 01:13:12;;;;;;;7.95;2.85;;;15.80;98.20;;;;;;5047393;28;20033;-61
2021/06/14 01:16:09;;;;;;;7.30;2.40;;;15.90;98.60;;;;;;5032242;28;20041;-62
2021/06/14 01:19:13;;;;;;;5.50;2.78;;;15.90;98.10;;;;;;5032219;28;20037;-61
2021/06/14 01:21:45;;;;;;;7.55;2.92;;;15.90;97.90;;;;;;5041964;28;20490;-62
2021/06/14 01:24:29;;;;;;;7.22;2.50;;;15.80;98.50;;;;;;5047211;28;20034;-61
2021/06/14 01:27:06;;;;;;;6.70;2.20;;;16.00;99.00;;;;;;5032009;28;20044;-61
2021/06/14 01:29:35;;;;;;;7.60;2.60;;;15.90;99.00;;;;;;5048981;28;20053;-62
2021/06/14 01:32:03;;;;;;;6.78;2.25;;;15.90;99.60;;;;;;5051022;28;20034;-62
2021/06/14 01:34:32;;;;;;;9.40;2.58;;;15.90;99.50;;;;;;5051266;28;20033;-62
2021/06/14 01:37:00;;;;;;;6.50;2.55;;;15.90;99.80;;;;;;5050668;28;20060;-62
2021/06/14 01:39:30;;;;;;;5.88;2.58;;;15.80;99.90;;;;;;5035980;28;20026;-62
2021/06/14 01:41:59;;;;;;;4.15;2.20;;;15.80;99.30;;;;;;5036006;28;20061;-62
2021/06/14 01:44:27;;;;;;;6.88;2.55;;;15.80;99.60;;;;;;5050769;28;20021;-62
2021/06/14 01:46:58;;;;;;;7.07;2.30;;;15.80;99.40;;;;;;5051208;28;20033;-62
2021/06/14 01:49:26;;;;;;;6.47;2.47;;;15.80;99.80;;;;;;5050684;28;20036;-62
2021/06/14 01:51:52;;;;;;;7.15;2.28;;;15.70;99.90;;;;;;5050441;28;20495;-62
2021/06/14 01:54:19;;;;;;;6.97;2.67;;;15.60;99.90;;;;;;5034131;28;20029;-62
2021/06/14 01:56:52;;;;;;;5.70;2.67;;;15.50;99.90;;;;;;5035446;28;20034;-62
2021/06/14 01:59:21;;;;;;;9.45;3.20;;;15.50;99.90;;;;;;5050177;28;20466;-62
2021/06/14 02:01:48;;;;;;;5.60;2.55;;;15.60;99.90;;;;;;5035449;28;20053;-62
2021/06/14 02:04:14;;;;;;;7.50;3.05;;;15.80;99.90;;;;;;5050460;28;20041;-61
2021/06/14 02:06:44;;;;;;;5.25;2.75;;;15.90;99.90;;;;;;5035541;28;20431;-62
2021/06/14 02:09:13;;;;;;;6.97;2.83;;;15.90;99.90;;;;;;5050275;28;20038;-62
2021/06/14 02:11:47;;;;;;;5.75;2.35;;;16.00;99.90;;;;;;5050145;28;20505;-62
2021/06/14 02:14:19;;;;;;;7.20;2.35;;;15.90;99.70;;;;;;5050109;28;20048;-62
2021/06/14 02:16:48;;;;;;;5.47;2.78;;;15.70;99.90;;;;;;5049764;28;20080;-62
2021/06/14 02:19:14;;;;;;;5.95;2.72;;;15.70;99.90;;;;;;5050127;28;20044;-63
2021/06/14 02:21:44;;;;;;;7.82;3.10;;;15.60;99.90;;;;;;5035128;28;20033;-62
2021/06/14 02:24:11;;;;;;;6.70;3.40;;;15.60;99.90;;;;;;5050304;28;20037;-62
2021/06/14 02:26:40;;;;;;;6.70;2.42;;;15.70;99.90;;;;;;5050465;28;20088;-62
2021/06/14 02:29:07;;;;;;;4.78;2.42;;;15.80;99.90;;;;;;5034713;28;20040;-62
2021/06/14 02:31:34;;;;;;;5.38;2.80;;;15.80;99.90;;;;;;5049925;28;20052;-62
2021/06/14 02:34:03;;;;;;;5.72;2.67;;;15.90;99.90;;;;;;5034809;28;20120;-62
2021/06/14 02:36:29;;;;;;;4.35;2.60;;;15.70;99.90;;;;;;5034604;28;20041;-62
2021/06/14 02:38:59;;;;;;;6.30;2.47;;;15.40;99.90;;;;;;5034967;28;20041;-63
2021/06/14 02:41:25;;;;;;;11.32;2.92;;;15.30;99.90;;;;;;5048321;28;20037;-62
2021/06/14 02:43:51;;;;;;;6.25;2.92;;;15.00;99.90;;;;;;5050270;28;20036;-62
2021/06/14 02:46:18;;;;;;;5.93;2.50;;;14.90;99.90;;;;;;5034359;28;20112;-62
2021/06/14 02:48:50;;;;;;;5.72;2.60;;;14.90;99.90;;;;;;5050023;28;20079;-62
2021/06/14 02:51:19;;;;;;;5.68;2.78;;;15.00;99.90;;;;;;5034675;28;20037;-63
2021/06/14 02:53:46;;;;;;;5.65;2.58;;;14.90;99.90;;;;;;5049552;28;20030;-63
2021/06/14 02:56:17;;;;;;;7.50;2.55;;;15.00;99.90;;;;;;5034437;28;20087;-63
2021/06/14 02:58:47;;;;;;;4.75;2.70;;;15.10;99.90;;;;;;5049943;28;20087;-62
2021/06/14 03:01:13;;;;;;;5.53;2.70;;;15.20;99.90;;;;;;5034050;28;20558;-62
2021/06/14 03:03:42;;;;;;;5.70;2.45;;;15.30;99.90;;;;;;5034463;28;20025;-62
2021/06/14 03:06:15;;;;;;;5.90;2.85;;;15.00;99.90;;;;;;5049235;28;20033;-62
2021/06/14 03:08:42;;;;;;;6.53;3.15;;;14.90;99.90;;;;;;5049160;28;20029;-63
2021/06/14 03:11:08;;;;;;;8.93;3.00;;;14.90;99.90;;;;;;5034217;28;20152;-62
2021/06/14 03:13:35;;;;;;;6.03;2.60;;;14.80;99.90;;;;;;5049532;28;20065;-62
2021/06/14 03:16:03;;;;;;;5.15;2.90;;;14.90;99.90;;;;;;5049482;28;20033;-62
2021/06/14 03:18:30;;;;;;;4.22;2.25;;;14.90;99.90;;;;;;5049493;28;20030;-61
2021/06/14 03:20:58;;;;;;;7.25;2.60;;;15.00;99.90;;;;;;5033810;28;20044;-61
2021/06/14 03:23:24;;;;;;;6.47;2.65;;;15.10;99.90;;;;;;5048823;28;20482;-61
2021/06/14 03:25:51;;;;;;;7.45;2.63;;;15.20;99.90;;;;;;5049015;28;20363;-61
2021/06/14 03:28:18;;;;;;;12.95;2.80;;;15.10;99.90;;;;;;5049247;28;20118;-61
2021/06/14 03:30:45;;;;;;;4.78;2.80;;;15.10;99.90;;;;;;5048875;28;20580;-61
2021/06/14 03:33:17;;;;;;;5.75;2.80;;;15.20;99.90;;;;;;5048762;28;20064;-61
2021/06/14 03:35:43;;;;;;;6.35;3.20;;;15.10;99.90;;;;;;5033601;28;20033;-61
2021/06/14 03:38:09;;;;;;;6.53;2.65;;;14.90;99.90;;;;;;5033684;28;20497;-61
2021/06/14 03:40:35;;;;;;;5.47;2.53;;;15.00;99.90;;;;;;5033769;28;20045;-61
2021/06/14 03:43:04;;;;;;;6.78;2.95;;;15.10;99.90;;;;;;5026217;28;20029;-61
2021/06/14 03:45:31;;;;;;;5.97;3.10;;;14.90;99.90;;;;;;5047399;28;20049;-61
2021/06/14 03:47:57;;;;;;;7.97;3.20;;;14.70;99.90;;;;;;5033360;28;20097;-60
2021/06/14 03:50:24;;;;;;;6.90;2.92;;;14.80;99.90;;;;;;5048498;28;20076;-62
2021/06/14 03:52:51;;;;;;;4.95;2.65;;;14.80;99.90;;;;;;5021017;28;20030;-62
2021/06/14 03:55:18;;;;;;;5.32;2.60;;;14.60;99.90;;;;;;5013245;28;20116;-62
2021/06/14 03:57:44;;;;;;;6.95;3.22;;;14.60;99.90;;;;;;5043047;28;20041;-62
2021/06/14 04:00:13;;;;;;;6.53;2.75;;;14.70;99.90;;;;;;5033462;28;20034;-63
2021/06/14 04:02:40;;;;;;;5.40;2.85;;;14.70;99.90;;;;;;5032045;28;20061;-62
2021/06/14 04:05:08;;;;;;;5.03;2.83;;;14.60;99.90;;;;;;5033221;28;20025;-63
2021/06/14 04:07:34;;;;;;;5.75;3.05;;;14.70;99.90;;;;;;5032840;28;20037;-63
2021/06/14 04:10:00;;;;;;;5.70;2.65;;;14.70;99.90;;;;;;5033113;28;20116;-62
2021/06/14 04:12:28;;;;;;;5.68;2.58;;;14.90;99.90;;;;;;5032987;28;20416;-62
2021/06/14 04:14:54;;;;;;;6.28;2.67;;;15.00;99.90;;;;;;5031815;28;20116;-61
2021/06/14 04:17:20;;;;;;;7.03;2.55;;;15.10;99.90;;;;;;5032792;28;20501;-62
2021/06/14 04:19:46;;;;;;;7.78;2.90;;;15.20;99.90;;;;;;5031486;28;20393;-62
2021/06/14 04:22:12;;;;;;;6.13;2.47;;;15.40;99.90;;;;;;5038838;28;20033;-62
2021/06/14 04:24:38;;;;;;;6.65;2.75;;;15.40;99.90;;;;;;5052793;28;20029;-62
2021/06/14 04:27:05;;;;;;;5.80;2.60;;;15.50;99.90;;;;;;5052722;28;20033;-63
2021/06/14 04:29:31;;;;;;;10.18;2.80;;;15.50;99.90;;;;;;5052239;28;20067;-62
2021/06/14 04:31:58;;;;;;;5.05;2.55;;;15.70;99.90;;;;;;5052765;28;20484;-61
2021/06/14 04:34:26;;;;;;;7.55;2.67;;;15.70;99.90;;;;;;5052555;28;20033;-61
2021/06/14 04:36:52;;;;;;;10.10;2.83;;;15.80;99.90;;;;;;5052199;28;20104;-62
2021/06/14 04:39:17;;;;;;;9.63;3.38;;;15.70;99.90;;;;;;5052481;28;20521;-62
2021/06/14 04:41:43;;;;;;;7.50;3.38;;;15.80;99.90;;;;;;5052527;28;20031;-62
2021/06/14 04:44:09;;;;;;;5.65;2.55;;;15.70;99.90;;;;;;5052500;28;20036;-62
2021/06/14 04:46:35;;;;;;;6.05;1.92;;;15.80;99.90;;;;;;5052432;28;20032;-60
2021/06/14 04:49:01;;;;;;;5.28;2.72;;;15.80;99.90;;;;;;5052281;28;20044;-59
2021/06/14 04:51:28;;;;;;;7.97;3.08;;;15.80;99.90;;;;;;5051666;28;20029;-59
2021/06/14 04:53:54;;;;;;;6.75;2.80;;;15.90;99.90;;;;;;5032517;28;20540;-62
2021/06/14 04:56:20;;;;;;;5.97;3.03;;;15.90;99.90;;;;;;5030886;28;20034;-63
2021/06/14 04:58:46;;;;;;;9.20;3.00;;;15.90;99.90;;;;;;5032410;28;20029;-62
2021/06/14 05:01:12;;;;;;;6.55;3.13;;;15.90;99.90;;;;;;5032433;28;20473;-62
2021/06/14 05:03:37;;;;;;;7.90;3.25;;;16.00;99.90;;;;;;5031691;28;20068;-62
2021/06/14 05:06:04;;;;;;;5.88;2.78;;;16.20;99.90;;;;;;5031238;28;20037;-62
2021/06/14 05:08:30;;;;;;;9.88;3.00;;;16.30;99.90;;;;;;5032178;28;20104;-62
2021/06/14 05:10:55;;;;;;;11.30;2.60;;;16.40;99.90;;;;;;5032160;28;20041;-61
2021/06/14 05:13:21;;;;;;;9.10;2.72;;;16.60;99.90;;;;;;5032084;28;20458;-61
2021/06/14 05:15:47;;;;;;;11.40;3.05;;;16.70;99.90;;;;;;5032129;28;20037;-62
2021/06/14 05:18:13;;;;;;;9.40;3.28;;;16.80;99.90;;;;;;5032098;28;20557;-61
2021/06/14 05:20:39;;;;;;;10.35;2.75;;;16.80;99.90;;;;;;5031634;28;20056;-60
2021/06/14 05:23:06;;;;;;;6.68;2.85;;;16.90;99.90;;;;;;5030603;28;20068;-62
2021/06/14 05:25:36;;;;;;;9.75;2.90;;;16.90;99.90;;;;;;5031781;28;20030;-61
2021/06/14 05:28:04;;;;;;;11.87;3.40;;;17.10;99.90;;;;;;5031983;28;20078;-62
2021/06/14 05:30:31;;;;;;;10.32;2.85;;;17.00;99.90;;;;;;5031647;28;20120;-62
2021/06/14 05:32:58;;;;;;;9.40;2.97;;;16.90;99.90;;;;;;5031856;28;20104;-62
2021/06/14 05:35:24;;;;;;;12.93;3.20;;;16.80;99.90;;;;;;5031940;28;20030;-61
2021/06/14 05:37:50;;;;;;;7.40;2.45;;;16.80;99.90;;;;;;5047249;28;20446;-62
2021/06/14 05:40:17;;;;;;;10.45;3.08;;;16.90;99.90;;;;;;5046704;28;20108;-62
2021/06/14 05:42:44;;;;;;;10.38;3.20;;;17.00;99.90;;;;;;5031551;28;20072;-62
2021/06/14 05:45:11;;;;;;;12.50;2.70;;;17.20;99.90;;;;;;5031669;28;20040;-62
2021/06/14 05:47:38;;;;;;;11.63;2.88;;;17.30;99.90;;;;;;5031352;28;20029;-61
2021/06/14 05:50:05;;;;;;;7.32;2.60;;;17.50;99.90;;;;;;5031178;28;20060;-61
2021/06/14 05:52:32;;;;;;;11.98;4.47;;;17.70;99.90;;;;;;5033900;28;20074;-61
2021/06/14 05:54:58;;;;;;;8.80;3.67;;;17.80;99.90;;;;;;5031855;28;20030;-62
2021/06/14 05:57:24;;;;;;;9.40;3.15;;;17.70;99.90;;;;;;5031638;28;20496;-62
2021/06/14 05:59:49;;;;;;;7.82;3.55;;;17.80;99.60;;;;;;5031712;28;20083;-62
2021/06/14 06:02:15;;;;;;;7.47;2.75;;;17.90;99.40;;;;;;5031456;28;20037;-63
2021/06/14 06:04:41;;;;;;;8.10;2.78;;;17.90;98.90;;;;;;5046834;28;20030;-62
2021/06/14 06:07:07;;;;;;;22.25;11.38;;;18.00;99.10;;;;;;5031633;28;20496;-62
2021/06/14 06:09:32;;;;;;;15.18;7.20;;;18.20;98.60;;;;;;5031610;28;20040;-62
2021/06/14 06:11:58;;;;;;;19.45;11.80;;;18.30;98.60;;;;;;5031636;28;20496;-62
2021/06/14 06:14:24;;;;;;;12.50;4.53;;;18.30;98.10;;;;;;5031413;28;20033;-61
2021/06/14 06:16:50;;;;;;;10.93;3.20;;;18.40;99.30;;;;;;5035105;28;20026;-63
2021/06/14 06:19:17;;;;;;;10.10;2.20;;;18.50;97.10;;;;;;5035057;28;20036;-63
2021/06/14 06:21:43;;;;;;;5.45;2.70;;;18.50;97.60;;;;;;5033552;28;20119;-62
2021/06/14 06:24:09;;;;;;;4.45;2.15;;;18.60;97.80;;;;;;5034821;28;20031;-62
2021/06/14 06:26:35;;;;;;;8.98;2.70;;;18.60;97.50;;;;;;5034648;28;20125;-62
2021/06/14 06:29:03;;;;;;;7.28;2.55;;;18.70;97.50;;;;;;5034829;28;20036;-63
2021/06/14 06:31:30;;;;;;;6.78;2.22;;;18.80;97.40;;;;;;5049788;28;20050;-62
2021/06/14 06:33:57;;;;;;;8.88;2.60;;;18.80;97.10;;;;;;5034643;28;20374;-62
2021/06/14 06:36:23;;;;;;;6.80;2.38;;;18.90;97.00;;;;;;5034658;28;20055;-62
2021/06/14 06:38:48;;;;;;;8.70;2.28;;;19.00;96.80;;;;;;5034792;28;20080;-62
2021/06/14 06:41:14;;;;;;;13.10;5.65;;;19.10;96.90;;;;;;5050065;28;20393;-62
2021/06/14 06:43:40;;;;;;;9.38;3.72;;;19.30;97.00;;;;;;5034416;28;20034;-62
2021/06/14 06:46:06;;;;;;;8.55;2.50;;;19.40;96.50;;;;;;5033132;28;20037;-62
2021/06/14 06:48:32;;;;;;;7.63;2.85;;;19.50;95.90;;;;;;5034244;28;20033;-62
2021/06/14 06:50:59;;;;;;;6.22;2.88;;;19.50;95.80;;;;;;5034550;28;20116;-62
2021/06/14 06:53:26;;;;;;;4.90;2.00;;;19.70;95.90;;;;;;5050606;28;20036;-62
2021/06/14 06:55:52;;;;;;;6.85;1.98;;;19.70;95.50;;;;;;5054324;28;20059;-62
2021/06/14 06:58:18;;;;;;;6.15;2.22;;;19.80;95.60;;;;;;5054454;28;20377;-62
2021/06/14 07:00:47;;;;;;;5.15;2.33;;;19.90;95.20;;;;;;5053473;28;20120;-63
2021/06/14 07:03:16;;;;;;;6.57;2.30;;;19.90;94.20;;;;;;5054073;28;20029;-63
2021/06/14 07:05:43;;;;;;;5.72;2.85;;;19.90;94.50;;;;;;5054131;28;20044;-63
2021/06/14 07:08:10;;;;;;;8.23;2.30;;;20.00;94.20;;;;;;5052589;28;20028;-64
2021/06/14 07:10:37;;;;;;;5.88;2.67;;;20.10;93.80;;;;;;5053894;28;20473;-63
2021/06/14 07:13:04;;;;;;;8.70;2.33;;;20.20;94.30;;;;;;5053980;28;20033;-63
2021/06/14 07:15:30;;;;;;;6.75;2.22;;;20.30;93.40;;;;;;5068953;28;20401;-63
2021/06/14 07:17:56;;;;;;;13.35;2.58;;;20.20;93.60;;;;;;5052874;28;20119;-62
2021/06/14 07:20:22;;;;;;;4.72;2.15;;;20.30;93.90;;;;;;5052330;28;20098;-63
2021/06/14 07:22:48;;;;;;;4.65;1.90;;;20.30;93.20;;;;;;5040874;28;20057;-63
2021/06/14 07:25:15;;;;;;;4.30;1.88;;;20.40;91.70;;;;;;5034020;28;20799;-64
2021/06/14 07:27:42;;;;;;;8.07;2.22;;;20.50;91.20;;;;;;5032895;28;20099;-63
2021/06/14 07:30:11;;;;;;;4.85;1.92;;;20.60;91.10;;;;;;5048734;28;20067;-64
2021/06/14 07:32:38;;;;;;;3.25;2.00;;;20.60;90.30;;;;;;5033541;28;20041;-62
2021/06/14 07:35:07;;;;;;;5.25;1.85;;;20.70;90.60;;;;;;5049047;28;20029;-65
2021/06/14 07:37:33;;;;;;;4.97;2.15;;;20.70;89.20;;;;;;5033217;28;20504;-64
2021/06/14 07:39:59;;;;;;;3.78;1.67;;;20.80;89.40;;;;;;5033853;28;20025;-64
2021/06/14 07:42:25;;;;;;;7.15;2.28;;;20.80;89.30;;;;;;5034964;28;20060;-63
2021/06/14 07:44:51;;;;;;;4.30;1.75;;;20.80;89.00;;;;;;5034182;28;20484;-68
2021/06/14 07:47:17;;;;;;;5.88;2.08;;;20.80;89.80;;;;;;5033436;28;20029;-66
2021/06/14 07:49:42;;;;;;;5.70;2.30;;;20.90;89.40;;;;;;5032032;28;20029;-65
2021/06/14 07:52:09;;;;;;;7.18;2.75;;;20.90;89.20;;;;;;5033302;28;20034;-65
2021/06/14 07:54:35;;;;;;;7.88;2.60;;;20.90;88.90;;;;;;5033171;28;20033;-66
2021/06/14 07:57:02;;;;;;;6.05;1.95;;;20.90;88.00;;;;;;5031877;28;20044;-65
2021/06/14 07:59:28;;;;;;;7.72;2.03;;;20.90;90.40;;;;;;5032856;28;20456;-66
2021/06/14 08:01:54;;;;;;;5.47;1.90;;;21.00;88.90;;;;;;5048231;28;20390;-64
2021/06/14 08:04:20;;;;;;;4.20;2.00;;;21.00;88.50;;;;;;5048289;28;20025;-64
2021/06/14 08:06:46;;;;;;;6.15;1.85;;;21.10;89.10;;;;;;5031484;28;20025;-64
2021/06/14 08:09:15;;;;;;;6.82;2.53;;;21.10;88.60;;;;;;5048372;28;20079;-64
2021/06/14 08:11:45;;;;;;;5.82;1.88;;;21.30;88.50;;;;;;5033161;28;20478;-64
2021/06/14 08:14:11;;;;;;;6.05;2.30;;;21.20;87.20;;;;;;5032946;28;20029;-64
2021/06/14 08:16:43;;;;;;;7.82;1.90;;;21.30;87.10;;;;;;5032592;28;20037;-62
2021/06/14 08:19:59;;;;;;;4.97;2.00;;;21.30;86.40;;;;;;5032840;28;20033;-64
2021/06/14 08:27:18;;;;;;;4.03;1.58;;;21.70;85.50;;;;;;5051640;28;20531;-64
2021/06/14 08:29:44;;;;;;;5.35;1.60;;;21.70;83.10;;;;;;5052161;28;20061;-64
2021/06/14 08:32:10;;;;;;;4.47;1.70;;;21.60;83.30;;;;;;5051538;28;20031;-65
2021/06/14 08:34:36;;;;;;;5.30;1.85;;;21.60;84.00;;;;;;5067951;28;20036;-64
2021/06/14 08:37:02;;;;;;;3.92;1.85;;;21.70;83.10;;;;;;5052548;28;20141;-65
2021/06/14 08:39:28;;;;;;;4.75;2.00;;;21.70;83.10;;;;;;5050740;28;20072;-63
2021/06/14 08:41:54;;;;;;;6.10;1.70;;;21.80;82.90;;;;;;5052346;28;20544;-64
2021/06/14 08:44:20;;;;;;;3.47;1.80;;;21.90;82.40;;;;;;5051157;28;20457;-64
2021/06/14 08:46:53;;;;;;;5.28;2.13;;;21.90;83.10;;;;;;5050907;28;20090;-64
2021/06/14 08:49:19;;;;;;;7.75;2.30;;;22.10;84.00;;;;;;5051075;28;20035;-65
2021/06/14 08:51:45;;;;;;;3.42;1.75;;;22.20;83.90;;;;;;5049536;28;20385;-64
2021/06/14 08:54:11;;;;;;;3.83;2.15;;;22.10;83.00;;;;;;5032316;28;20040;-61
2021/06/14 08:56:37;;;;;;;5.45;2.20;;;22.10;81.60;;;;;;5031818;28;20030;-64
2021/06/14 08:59:03;;;;;;;4.88;1.85;;;22.10;83.10;;;;;;5032066;28;20389;-63
2021/06/14 09:01:30;;;;;;;6.10;2.10;;;22.20;82.20;;;;;;5031961;28;20083;-66
2021/06/14 09:03:56;;;;;;;4.80;2.08;;;22.30;83.60;;;;;;5032353;28;20029;-62
2021/06/14 09:06:22;;;;;;;3.30;1.73;;;22.60;82.50;;;;;;5032157;28;20030;-62
2021/06/14 09:09:00;;;;;;;4.82;1.73;;;22.30;82.40;;;;;;5030466;28;20084;-63
2021/06/14 09:11:28;;;;;;;6.25;2.28;;;22.50;82.40;;;;;;5031008;28;20063;-62
2021/06/14 09:13:54;;;;;;;6.78;1.90;;;22.60;82.60;;;;;;5031953;28;20045;-63
2021/06/14 09:16:20;;;;;;;3.85;1.65;;;22.90;82.50;;;;;;5031802;28;20454;-63
2021/06/14 09:18:46;;;;;;;6.88;2.17;;;23.10;80.70;;;;;;5031718;28;20043;-63
2021/06/14 09:21:15;;;;;;;4.63;1.80;;;23.10;81.20;;;;;;5030537;28;20124;-62
2021/06/14 09:23:54;;;;;;;4.93;1.90;;;23.00;80.90;;;;;;5050235;28;20116;-62
2021/06/14 09:26:29;;;;;;;5.30;2.17;;;23.10;80.30;;;;;;5052132;28;20029;-62
2021/06/14 09:29:04;;;;;;;4.35;2.00;;;23.00;80.20;;;;;;5052057;28;20045;-62
2021/06/14 09:31:42;;;;;;;4.90;1.98;;;23.20;80.50;;;;;;5051559;28;20056;-62
2021/06/14 09:34:10;;;;;;;6.00;1.90;;;23.30;80.90;;;;;;5051685;28;20456;-62
2021/06/14 09:36:36;;;;;;;3.40;1.55;;;23.40;79.90;;;;;;5066915;28;20117;-62
2021/06/14 09:39:12;;;;;;;5.15;2.13;;;23.40;78.10;;;;;;5032880;28;20033;-63
2021/06/14 09:41:48;;;;;;;4.63;2.10;;;23.30;79.20;;;;;;5064673;28;20029;-63
2021/06/14 09:44:31;;;;;;;4.68;1.80;;;23.50;79.60;;;;;;5050769;28;20033;-62
2021/06/14 09:47:07;;;;;;;7.53;2.28;;;23.70;79.20;;;;;;5050721;28;20043;-63
2021/06/14 09:49:34;;;;;;;4.00;1.83;;;23.60;77.60;;;;;;5052202;28;20113;-63
2021/06/14 09:52:00;;;;;;;5.05;2.10;;;23.30;77.60;;;;;;5050546;28;20378;-63
2021/06/14 09:54:35;;;;;;;3.55;2.08;;;23.60;78.80;;;;;;5035585;28;20099;-63
2021/06/14 09:57:05;;;;;;;6.20;2.17;;;23.80;77.60;;;;;;5035605;28;20037;-63
2021/06/14 09:59:39;;;;;;;5.03;2.03;;;23.90;77.50;;;;;;5035344;28;20029;-63
2021/06/14 10:02:19;;;;;;;4.57;1.95;;;23.90;77.80;;;;;;5035296;28;20039;-63
2021/06/14 10:04:54;;;;;;;4.40;2.23;;;23.90;77.70;;;;;;5035431;28;20091;-63
2021/06/14 10:07:22;;;;;;;5.40;1.77;;;23.80;76.90;;;;;;5035121;28;20038;-63
2021/06/14 10:09:52;;;;;;;3.33;1.80;;;23.90;77.20;;;;;;5035109;28;20034;-64
2021/06/14 10:12:25;;;;;;;4.70;1.87;;;23.80;77.50;;;;;;5035099;28;20041;-63
2021/06/14 10:15:00;;;;;;;3.88;1.77;;;24.10;77.00;;;;;;5034922;28;20033;-63
2021/06/14 10:17:44;;;;;;;4.90;2.00;;;24.40;75.60;;;;;;5033866;28;20037;-63
2021/06/14 10:20:30;;;;;;;5.38;2.75;;;24.60;75.10;;;;;;5035184;28;20033;-63
2021/06/14 10:22:59;;;;;;;5.45;2.28;;;24.80;75.50;;;;;;5047583;28;20036;-62
2021/06/14 10:25:26;;;;;;;3.50;1.73;;;25.00;74.90;;;;;;5054827;28;20036;-64
2021/06/14 10:27:54;;;;;;;4.85;2.55;;;25.00;74.50;;;;;;5054455;28;20030;-61
2021/06/14 10:30:23;;;;;;;5.75;2.15;;;25.10;75.40;;;;;;5054655;28;20083;-62
2021/06/14 10:32:50;;;;;;;7.20;1.95;;;25.30;74.10;;;;;;5053585;28;20025;-61
2021/06/14 10:35:18;;;;;;;13.20;2.42;;;25.30;73.00;;;;;;5054728;28;20029;-59
2021/06/14 10:37:53;;;;;;;7.07;1.65;;;25.50;74.00;;;;;;5054293;28;20123;-61
2021/06/14 10:40:26;;;;;;;4.97;2.05;;;25.30;72.40;;;;;;5054761;28;20032;-63
2021/06/14 10:42:53;;;;;;;5.25;2.28;;;25.30;75.80;;;;;;5070072;28;20033;-63
2021/06/14 10:45:26;;;;;;;5.10;1.80;;;25.70;73.50;;;;;;5054366;28;20093;-64
2021/06/14 10:47:53;;;;;;;5.55;1.90;;;25.80;71.20;;;;;;5054357;28;20485;-61
2021/06/14 10:50:25;;;;;;;38.85;25.13;;;25.50;72.20;;;;;;5054561;28;20040;-61
2021/06/14 10:52:54;;;;;;;6.45;2.40;;;25.70;73.20;;;;;;5042416;28;20499;-62
2021/06/14 10:55:29;;;;;;;6.50;2.10;;;25.80;72.90;;;;;;5034161;28;20394;-62
2021/06/14 10:57:56;;;;;;;5.03;2.35;;;26.20;73.30;;;;;;5032867;28;20034;-63
2021/06/14 11:00:35;;;;;;;5.43;1.85;;;26.20;70.80;;;;;;5033115;28;20033;-64
2021/06/14 11:03:03;;;;;;;5.30;1.80;;;26.20;71.60;;;;;;5031993;28;20029;-64
2021/06/14 11:05:36;;;;;;;5.78;1.83;;;26.20;69.90;;;;;;5033480;28;20079;-63
2021/06/14 11:08:16;;;;;;;6.13;2.00;;;26.40;68.40;;;;;;5032856;28;20041;-63
2021/06/14 11:10:45;;;;;;;4.95;2.05;;;26.30;68.30;;;;;;5033874;28;20044;-64
2021/06/14 11:13:16;;;;;;;7.05;1.92;;;26.30;68.80;;;;;;5033857;28;20091;-64
2021/06/14 11:15:47;;;;;;;4.70;2.00;;;26.40;68.90;;;;;;5032414;28;20091;-64
2021/06/14 11:18:29;;;;;;;4.97;2.20;;;26.40;69.00;;;;;;5033903;28;20444;-64
2021/06/14 11:21:18;;;;;;;5.57;1.80;;;26.60;69.80;;;;;;5016435;28;20037;-64
2021/06/14 11:23:47;;;;;;;6.25;1.63;;;26.70;68.30;;;;;;5051713;28;20536;-64
2021/06/14 11:26:29;;;;;;;5.43;2.55;;;26.70;67.90;;;;;;5053626;28;20068;-63
2021/06/14 11:28:56;;;;;;;5.88;1.88;;;26.80;67.30;;;;;;5052264;28;20652;-63
2021/06/14 11:31:29;;;;;;;4.28;1.80;;;26.80;68.30;;;;;;5052302;28;20608;-63
2021/06/14 11:34:05;;;;;;;3.95;1.63;;;26.80;66.30;;;;;;5049956;28;20106;-63
2021/06/14 11:36:34;;;;;;;4.75;1.60;;;26.90;65.60;;;;;;5044387;28;20071;-63
2021/06/14 11:39:13;;;;;;;7.47;2.03;;;27.00;66.20;;;;;;5033307;28;20355;-64
2021/06/14 11:41:40;;;;;;;4.97;1.77;;;26.80;66.70;;;;;;5033384;28;20037;-63
2021/06/14 11:44:28;;;;;;;5.15;1.70;;;26.90;67.50;;;;;;5033294;28;20501;-64
2021/06/14 11:47:14;;;;;;;3.45;1.63;;;26.80;65.90;;;;;;5033258;28;20060;-64
2021/06/14 11:49:41;;;;;;;4.28;1.48;;;26.90;64.70;;;;;;5033433;28;20025;-63
2021/06/14 11:52:32;;;;;;;3.08;1.52;;;27.30;65.40;;;;;;5037886;28;20119;-63
2021/06/14 11:55:03;;;;;;;4.97;2.10;;;27.40;67.10;;;;;;5052981;28;20055;-64
2021/06/14 11:57:46;;;;;;;6.97;2.10;;;27.60;66.40;;;;;;5052021;28;20048;-64
2021/06/14 12:00:33;;;;;;;6.53;1.77;;;27.60;64.90;;;;;;5053120;28;20033;-64
2021/06/14 12:03:00;;;;;;;11.75;1.80;;;27.70;63.40;;;;;;5052760;28;20396;-64
2021/06/14 12:05:35;;;;;;;4.35;2.00;;;27.60;64.70;;;;;;5053333;28;20032;-64
2021/06/14 12:08:08;;;;;;;7.07;2.00;;;27.60;64.50;;;;;;5051469;28;20035;-64
2021/06/14 12:10:34;;;;;;;5.20;1.80;;;28.00;64.40;;;;;;5035227;28;20025;-64
2021/06/14 12:13:07;;;;;;;7.80;2.70;;;28.10;65.90;;;;;;5031510;28;20064;-64
2021/06/14 12:15:35;;;;;;;4.10;1.70;;;28.00;64.00;;;;;;5032984;28;20030;-64
2021/06/14 12:18:01;;;;;;;3.47;1.83;;;28.30;63.90;;;;;;5032673;28;20474;-63
2021/06/14 12:20:34;;;;;;;6.35;2.00;;;28.40;62.80;;;;;;5032773;28;20041;-59
2021/06/14 12:23:10;;;;;;;5.13;1.77;;;28.30;62.20;;;;;;5045530;28;20029;-64
2021/06/14 12:25:45;;;;;;;4.15;1.83;;;28.40;62.10;;;;;;5051589;28;20025;-64
2021/06/14 12:28:15;;;;;;;5.93;1.70;;;28.30;63.00;;;;;;5051413;28;20033;-64
2021/06/14 12:30:44;;;;;;;7.18;1.63;;;28.40;64.00;;;;;;5051927;28;20096;-65
2021/06/14 12:33:10;;;;;;;7.30;1.90;;;28.60;63.20;;;;;;5052619;28;20158;-64
2021/06/14 12:35:39;;;;;;;3.38;1.90;;;28.70;61.40;;;;;;5051307;28;20510;-64
2021/06/14 12:38:12;;;;;;;3.67;1.60;;;28.70;62.50;;;;;;5052178;28;20029;-63
2021/06/14 12:40:40;;;;;;;4.32;1.83;;;28.70;63.20;;;;;;5051126;28;20129;-63
2021/06/14 12:43:11;;;;;;;2.97;1.75;;;28.90;62.40;;;;;;5051254;28;20469;-63
2021/06/14 12:45:38;;;;;;;5.72;1.85;;;29.00;61.60;;;;;;5051133;28;20063;-64
2021/06/14 12:48:12;;;;;;;4.70;1.90;;;29.30;61.80;;;;;;5051104;28;20130;-64
2021/06/14 12:50:46;;;;;;;4.32;2.05;;;29.30;61.60;;;;;;5051197;28;20033;-64
2021/06/14 12:53:18;;;;;;;4.97;1.60;;;29.00;61.50;;;;;;5036883;28;20122;-64
2021/06/14 12:55:46;;;;;;;5.28;1.40;;;29.20;60.80;;;;;;5031673;28;20033;-63
2021/06/14 12:58:19;;;;;;;3.72;1.38;;;29.30;60.80;;;;;;5031953;28;20038;-64
2021/06/14 13:01:09;;;;;;;2.67;1.45;;;29.30;61.00;;;;;;5032294;28;20047;-64